createdAt,value
2019-03-17T00:00:18.837Z,996.9
2019-03-17T00:01:28.801Z,996.79
2019-03-17T00:02:38.744Z,996.86
2019-03-17T00:03:47.929Z,996.91
2019-03-17T00:04:57.635Z,996.95
2019-03-17T00:06:07.898Z,996.92
2019-03-17T00:07:17.965Z,996.84
2019-03-17T00:08:27.682Z,996.78
2019-03-17T00:09:37.650Z,996.69
2019-03-17T00:10:47.618Z,996.78
2019-03-17T00:11:59.901Z,996.81
2019-03-17T00:13:09.865Z,996.69
2019-03-17T00:14:20.767Z,996.68
2019-03-17T00:15:30.755Z,996.67
2019-03-17T00:16:40.795Z,996.7
2019-03-17T00:17:50.314Z,996.71
2019-03-17T00:19:00.044Z,996.66
2019-03-17T00:20:09.763Z,996.61
2019-03-17T00:21:19.473Z,996.65
2019-03-17T00:22:29.421Z,996.56
2019-03-17T00:23:39.131Z,996.56
2019-03-17T00:24:48.843Z,996.58
2019-03-17T00:26:11.312Z,996.56
2019-03-17T00:27:21.273Z,996.55
2019-03-17T00:28:31.232Z,996.53
2019-03-17T00:29:40.697Z,996.46
2019-03-17T00:30:50.405Z,996.41
2019-03-17T00:32:00.090Z,996.4
2019-03-17T00:33:09.881Z,996.39
2019-03-17T00:34:19.888Z,996.38
2019-03-17T00:35:29.865Z,996.38
2019-03-17T00:36:39.636Z,996.39
2019-03-17T00:37:49.363Z,996.4
2019-03-17T00:38:59.302Z,996.41
2019-03-17T00:40:09.254Z,996.41
2019-03-17T00:41:18.991Z,996.44
2019-03-17T00:42:32.054Z,996.48
2019-03-17T00:43:41.745Z,996.34
2019-03-17T00:44:51.448Z,996.34
2019-03-17T00:46:01.388Z,996.27
2019-03-17T00:47:11.007Z,996.31
2019-03-17T00:48:21.068Z,996.21
2019-03-17T00:49:31.014Z,996.17
2019-03-17T00:50:40.688Z,996.16
2019-03-17T00:51:52.025Z,996.17
2019-03-17T00:53:01.710Z,996.15
2019-03-17T00:54:11.659Z,996.08
2019-03-17T00:55:21.596Z,996.11
2019-03-17T00:56:31.047Z,996.06
2019-03-17T00:57:40.981Z,996
2019-03-17T00:58:50.678Z,996.1
2019-03-17T01:00:00.124Z,996.01
2019-03-17T01:01:10.082Z,995.95
2019-03-17T01:02:20.060Z,995.93
2019-03-17T01:03:30.021Z,996.03
2019-03-17T01:04:39.962Z,995.84
2019-03-17T01:06:01.404Z,995.84
2019-03-17T01:07:11.359Z,995.8
2019-03-17T01:08:21.296Z,995.94
2019-03-17T01:09:31.258Z,995.82
2019-03-17T01:10:41.204Z,995.72
2019-03-17T01:11:50.913Z,995.77
2019-03-17T01:13:00.869Z,995.65
2019-03-17T01:14:10.822Z,995.75
2019-03-17T01:15:20.518Z,995.71
2019-03-17T01:16:30.470Z,995.82
2019-03-17T01:17:40.153Z,995.75
2019-03-17T01:18:50.094Z,995.86
2019-03-17T01:19:59.521Z,995.71
2019-03-17T01:21:09.208Z,995.68
2019-03-17T01:22:18.916Z,995.65
2019-03-17T01:23:28.893Z,995.72
2019-03-17T01:24:38.600Z,995.6
2019-03-17T01:25:48.541Z,995.53
2019-03-17T01:26:57.746Z,995.57
2019-03-17T01:28:07.717Z,995.69
2019-03-17T01:29:17.414Z,995.75
2019-03-17T01:30:27.375Z,995.58
2019-03-17T01:31:37.343Z,995.71
2019-03-17T01:32:47.035Z,995.63
2019-03-17T01:33:56.713Z,995.46
2019-03-17T01:35:09.381Z,995.58
2019-03-17T01:36:19.810Z,995.6
2019-03-17T01:37:29.507Z,995.55
2019-03-17T01:38:38.946Z,995.57
2019-03-17T01:39:48.661Z,995.54
2019-03-17T01:40:58.594Z,995.5
2019-03-17T01:42:08.576Z,995.6
2019-03-17T01:43:21.389Z,995.53
2019-03-17T01:44:31.354Z,995.55
2019-03-17T01:45:41.047Z,995.53
2019-03-17T01:46:51.031Z,995.62
2019-03-17T01:48:00.782Z,995.47
2019-03-17T01:49:10.485Z,995.46
2019-03-17T01:50:20.441Z,995.46
2019-03-17T01:51:30.156Z,995.45
2019-03-17T01:52:39.853Z,995.54
2019-03-17T01:53:49.544Z,995.37
2019-03-17T01:54:59.484Z,995.38
2019-03-17T01:56:09.443Z,995.11
2019-03-17T01:57:19.380Z,995.33
2019-03-17T01:58:29.089Z,995.29
2019-03-17T01:59:39.038Z,995.32
2019-03-17T02:00:48.971Z,995.38
2019-03-17T02:01:58.926Z,995.29
2019-03-17T02:03:08.886Z,995.36
2019-03-17T02:04:18.570Z,995.25
2019-03-17T02:05:28.530Z,995.28
2019-03-17T02:06:38.480Z,995.35
2019-03-17T02:07:48.441Z,995.46
2019-03-17T02:08:58.385Z,995.24
2019-03-17T02:10:08.078Z,995.29
2019-03-17T02:11:18.005Z,995.2
2019-03-17T02:12:27.723Z,995.42
2019-03-17T02:13:37.656Z,995.26
2019-03-17T02:14:47.601Z,995.17
2019-03-17T02:15:57.582Z,995.12
2019-03-17T02:17:07.539Z,995.14
2019-03-17T02:18:17.536Z,995.29
2019-03-17T02:19:26.976Z,995.23
2019-03-17T02:20:36.911Z,995.16
2019-03-17T02:21:46.600Z,995.25
2019-03-17T02:22:56.552Z,995.32
2019-03-17T02:24:06.536Z,995.18
2019-03-17T02:25:16.262Z,995.05
2019-03-17T02:26:25.955Z,995.11
2019-03-17T02:27:35.884Z,995.14
2019-03-17T02:28:45.822Z,995.18
2019-03-17T02:29:55.501Z,995.24
2019-03-17T02:31:05.214Z,995.14
2019-03-17T02:32:15.179Z,995.35
2019-03-17T02:33:25.145Z,995.12
2019-03-17T02:34:34.878Z,995.01
2019-03-17T02:35:44.619Z,995
2019-03-17T02:36:54.319Z,994.96
2019-03-17T02:38:03.804Z,995.07
2019-03-17T02:39:13.498Z,995.21
2019-03-17T02:40:26.421Z,994.99
2019-03-17T02:41:36.361Z,995.06
2019-03-17T02:42:46.325Z,995.05
2019-03-17T02:43:56.021Z,995
2019-03-17T02:45:05.723Z,995.07
2019-03-17T02:46:15.673Z,995.2
2019-03-17T02:47:25.361Z,995.04
2019-03-17T02:48:35.201Z,995.02
2019-03-17T02:49:44.939Z,994.96
2019-03-17T02:50:54.900Z,995.01
2019-03-17T02:52:04.599Z,994.96
2019-03-17T02:53:14.323Z,994.87
2019-03-17T02:54:24.283Z,994.81
2019-03-17T02:55:33.987Z,994.85
2019-03-17T02:56:43.961Z,994.91
2019-03-17T02:57:53.686Z,994.88
2019-03-17T02:59:03.750Z,994.84
2019-03-17T03:00:13.737Z,994.88
2019-03-17T03:01:26.298Z,994.78
2019-03-17T03:02:36.292Z,994.9
2019-03-17T03:03:46.268Z,994.86
2019-03-17T03:04:56.213Z,994.81
2019-03-17T03:06:05.931Z,994.93
2019-03-17T03:07:15.393Z,995
2019-03-17T03:08:25.109Z,994.75
2019-03-17T03:09:35.077Z,994.73
2019-03-17T03:10:45.026Z,994.74
2019-03-17T03:11:54.883Z,994.97
2019-03-17T03:13:04.986Z,994.8
2019-03-17T03:14:14.959Z,994.72
2019-03-17T03:15:24.666Z,994.6
2019-03-17T03:16:34.463Z,994.92
2019-03-17T03:17:43.929Z,994.68
2019-03-17T03:18:53.399Z,994.76
2019-03-17T03:20:03.461Z,994.64
2019-03-17T03:21:13.497Z,994.71
2019-03-17T03:22:23.528Z,994.6
2019-03-17T03:23:33.509Z,994.56
2019-03-17T03:24:43.527Z,994.68
2019-03-17T03:25:53.484Z,994.54
2019-03-17T03:27:03.207Z,994.53
2019-03-17T03:28:13.173Z,994.57
2019-03-17T03:29:23.142Z,994.45
2019-03-17T03:30:35.013Z,994.47
2019-03-17T03:31:45.036Z,994.58
2019-03-17T03:32:54.921Z,994.49
2019-03-17T03:34:05.136Z,994.66
2019-03-17T03:35:14.881Z,994.47
2019-03-17T03:36:24.635Z,994.57
2019-03-17T03:37:34.595Z,994.56
2019-03-17T03:38:44.304Z,994.46
2019-03-17T03:39:54.383Z,994.52
2019-03-17T03:41:04.100Z,994.59
2019-03-17T03:42:13.330Z,994.62
2019-03-17T03:43:23.042Z,994.58
2019-03-17T03:44:32.977Z,994.54
2019-03-17T03:45:42.683Z,994.57
2019-03-17T03:46:52.642Z,994.54
2019-03-17T03:48:02.618Z,994.41
2019-03-17T03:49:12.342Z,994.48
2019-03-17T03:50:22.310Z,994.46
2019-03-17T03:51:32.076Z,994.44
2019-03-17T03:52:41.769Z,994.35
2019-03-17T03:53:51.469Z,994.37
2019-03-17T03:55:01.436Z,994.28
2019-03-17T03:56:11.498Z,994.23
2019-03-17T03:57:21.457Z,994.31
2019-03-17T03:58:31.195Z,994.29
2019-03-17T03:59:41.169Z,994.32
2019-03-17T04:00:50.881Z,994.29
2019-03-17T04:02:00.615Z,994.21
2019-03-17T04:03:10.570Z,994.27
2019-03-17T04:04:20.327Z,994.19
2019-03-17T04:05:32.630Z,994.24
2019-03-17T04:06:42.893Z,994.23
2019-03-17T04:07:52.859Z,994.16
2019-03-17T04:09:02.577Z,994.25
2019-03-17T04:10:12.305Z,994.21
2019-03-17T04:11:22.276Z,994.18
2019-03-17T04:12:32.234Z,994.17
2019-03-17T04:13:42.179Z,994.16
2019-03-17T04:14:51.875Z,994.21
2019-03-17T04:16:01.841Z,994.15
2019-03-17T04:17:11.790Z,994.08
2019-03-17T04:18:21.794Z,994.16
2019-03-17T04:19:31.491Z,994.16
2019-03-17T04:20:41.239Z,994.13
2019-03-17T04:21:50.942Z,994.1
2019-03-17T04:23:00.912Z,994.16
2019-03-17T04:24:10.889Z,994.19
2019-03-17T04:25:20.611Z,994.18
2019-03-17T04:26:30.570Z,994.15
2019-03-17T04:27:40.575Z,994.12
2019-03-17T04:28:50.276Z,994.07
2019-03-17T04:29:59.985Z,994.04
2019-03-17T04:31:09.795Z,994.1
2019-03-17T04:32:22.368Z,994.04
2019-03-17T04:33:32.319Z,993.9
2019-03-17T04:34:42.282Z,993.94
2019-03-17T04:35:51.985Z,993.94
2019-03-17T04:37:01.704Z,993.94
2019-03-17T04:38:10.890Z,994.14
2019-03-17T04:39:20.623Z,993.93
2019-03-17T04:40:30.369Z,993.87
2019-03-17T04:41:40.056Z,994.01
2019-03-17T04:42:49.751Z,993.87
2019-03-17T04:43:59.701Z,993.79
2019-03-17T04:45:20.975Z,993.76
2019-03-17T04:46:31.002Z,993.84
2019-03-17T04:47:40.694Z,993.78
2019-03-17T04:48:50.741Z,993.8
2019-03-17T04:50:01.365Z,993.79
2019-03-17T04:51:11.311Z,993.85
2019-03-17T04:52:21.267Z,993.87
2019-03-17T04:53:30.969Z,993.71
2019-03-17T04:54:40.655Z,993.78
2019-03-17T04:55:50.425Z,993.82
2019-03-17T04:57:00.405Z,993.65
2019-03-17T04:58:10.351Z,993.83
2019-03-17T04:59:19.779Z,993.86
2019-03-17T05:00:29.718Z,993.65
2019-03-17T05:01:39.417Z,993.94
2019-03-17T05:02:48.857Z,993.6
2019-03-17T05:03:58.806Z,993.77
2019-03-17T05:05:08.504Z,993.61
2019-03-17T05:06:18.439Z,993.5
2019-03-17T05:07:28.381Z,993.58
2019-03-17T05:08:38.319Z,993.57
2019-03-17T05:09:48.257Z,993.67
2019-03-17T05:10:57.966Z,993.67
2019-03-17T05:12:07.737Z,993.85
2019-03-17T05:13:17.417Z,993.69
2019-03-17T05:14:27.360Z,993.64
2019-03-17T05:15:37.063Z,993.61
2019-03-17T05:16:47.009Z,993.7
2019-03-17T05:17:56.699Z,993.6
2019-03-17T05:19:06.399Z,993.56
2019-03-17T05:20:16.347Z,993.57
2019-03-17T05:21:26.086Z,993.58
2019-03-17T05:22:36.040Z,993.55
2019-03-17T05:23:45.509Z,993.7
2019-03-17T05:24:55.197Z,993.55
2019-03-17T05:26:05.172Z,993.46
2019-03-17T05:27:15.120Z,993.45
2019-03-17T05:28:25.061Z,993.46
2019-03-17T05:29:35.021Z,993.41
2019-03-17T05:30:44.463Z,993.58
2019-03-17T05:31:54.393Z,993.49
2019-03-17T05:33:03.850Z,993.47
2019-03-17T05:34:13.805Z,993.4
2019-03-17T05:35:23.802Z,993.45
2019-03-17T05:36:33.783Z,993.39
2019-03-17T05:37:43.761Z,993.35
2019-03-17T05:38:53.724Z,993.36
2019-03-17T05:40:03.503Z,993.33
2019-03-17T05:41:13.205Z,993.32
2019-03-17T05:42:22.906Z,993.44
2019-03-17T05:43:32.852Z,993.36
2019-03-17T05:44:42.539Z,993.37
2019-03-17T05:45:52.494Z,993.45
2019-03-17T05:47:02.456Z,993.37
2019-03-17T05:48:12.404Z,993.34
2019-03-17T05:49:22.351Z,993.46
2019-03-17T05:50:32.310Z,993.4
2019-03-17T05:51:41.759Z,993.39
2019-03-17T05:52:51.704Z,993.39
2019-03-17T05:54:01.475Z,993.41
2019-03-17T05:55:11.414Z,993.44
2019-03-17T05:56:21.117Z,993.42
2019-03-17T05:57:31.080Z,993.36
2019-03-17T05:58:41.033Z,993.41
2019-03-17T05:59:50.721Z,993.35
2019-03-17T06:01:00.407Z,993.36
2019-03-17T06:02:10.359Z,993.36
2019-03-17T06:03:20.366Z,993.36
2019-03-17T06:04:30.331Z,993.3
2019-03-17T06:05:39.819Z,993.34
2019-03-17T06:06:49.781Z,993.4
2019-03-17T06:07:59.746Z,993.35
2019-03-17T06:09:09.482Z,993.25
2019-03-17T06:10:19.424Z,993.32
2019-03-17T06:11:29.132Z,993.35
2019-03-17T06:12:38.841Z,993.36
2019-03-17T06:13:51.113Z,993.38
2019-03-17T06:15:01.322Z,993.26
2019-03-17T06:16:10.300Z,993.39
2019-03-17T06:17:19.988Z,993.3
2019-03-17T06:18:29.686Z,993.34
2019-03-17T06:19:39.634Z,993.36
2019-03-17T06:20:49.088Z,993.36
2019-03-17T06:22:00.439Z,993.35
2019-03-17T06:23:10.517Z,993.38
2019-03-17T06:24:20.458Z,993.33
2019-03-17T06:25:30.430Z,993.38
2019-03-17T06:26:40.413Z,993.37
2019-03-17T06:27:50.357Z,993.38
2019-03-17T06:29:00.298Z,993.38
2019-03-17T06:30:10.251Z,993.31
2019-03-17T06:31:20.209Z,993.33
2019-03-17T06:32:30.147Z,993.32
2019-03-17T06:33:40.092Z,993.36
2019-03-17T06:34:50.026Z,993.35
2019-03-17T06:35:59.988Z,993.37
2019-03-17T06:37:09.733Z,993.42
2019-03-17T06:38:31.495Z,993.41
2019-03-17T06:39:41.460Z,993.48
2019-03-17T06:40:51.492Z,993.46
2019-03-17T06:42:04.486Z,993.51
2019-03-17T06:43:14.444Z,993.48
2019-03-17T06:44:24.418Z,993.48
2019-03-17T06:45:34.370Z,993.47
2019-03-17T06:46:44.067Z,993.47
2019-03-17T06:47:54.033Z,993.47
2019-03-17T06:49:03.740Z,993.45
2019-03-17T06:50:13.754Z,993.5
2019-03-17T06:51:23.724Z,993.52
2019-03-17T06:52:33.182Z,993.48
2019-03-17T06:53:55.395Z,993.41
2019-03-17T06:55:05.662Z,993.43
2019-03-17T06:56:15.602Z,993.5
2019-03-17T06:57:25.300Z,993.51
2019-03-17T06:58:35.264Z,993.39
2019-03-17T06:59:45.235Z,993.34
2019-03-17T07:00:55.187Z,993.31
2019-03-17T07:02:04.885Z,993.29
2019-03-17T07:03:14.858Z,993.29
2019-03-17T07:04:24.813Z,993.36
2019-03-17T07:05:34.492Z,993.3
2019-03-17T07:06:44.450Z,993.28
2019-03-17T07:07:54.172Z,993.31
2019-03-17T07:09:04.094Z,993.33
2019-03-17T07:10:13.572Z,993.31
2019-03-17T07:11:23.288Z,993.23
2019-03-17T07:12:33.246Z,993.28
2019-03-17T07:13:43.208Z,993.24
2019-03-17T07:14:53.196Z,993.27
2019-03-17T07:16:03.306Z,993.36
2019-03-17T07:17:13.261Z,993.24
2019-03-17T07:18:24.634Z,993.35
2019-03-17T07:19:34.334Z,993.26
2019-03-17T07:20:44.268Z,993.24
2019-03-17T07:21:54.233Z,993.27
2019-03-17T07:23:03.932Z,993.18
2019-03-17T07:24:13.918Z,993.25
2019-03-17T07:25:23.860Z,993.27
2019-03-17T07:26:33.798Z,993.3
2019-03-17T07:27:43.494Z,993.21
2019-03-17T07:28:53.186Z,993.23
2019-03-17T07:30:03.111Z,993.28
2019-03-17T07:31:13.068Z,993.22
2019-03-17T07:32:22.784Z,993.28
2019-03-17T07:33:32.732Z,993.28
2019-03-17T07:34:42.692Z,993.18
2019-03-17T07:35:52.140Z,993.28
2019-03-17T07:37:01.852Z,993.23
2019-03-17T07:38:11.863Z,993.21
2019-03-17T07:39:21.541Z,993.29
2019-03-17T07:40:31.290Z,993.25
2019-03-17T07:41:41.178Z,993.33
2019-03-17T07:42:51.129Z,993.27
2019-03-17T07:44:01.077Z,993.25
2019-03-17T07:45:10.762Z,993.33
2019-03-17T07:46:20.802Z,993.35
2019-03-17T07:47:30.744Z,993.2
2019-03-17T07:48:43.118Z,993.21
2019-03-17T07:49:52.574Z,993.16
2019-03-17T07:51:02.506Z,993.1
2019-03-17T07:52:12.460Z,993.15
2019-03-17T07:53:22.168Z,993.22
2019-03-17T07:54:34.850Z,993.22
2019-03-17T07:55:44.776Z,993.18
2019-03-17T07:56:54.456Z,993.29
2019-03-17T07:58:04.139Z,993.13
2019-03-17T07:59:14.100Z,993.13
2019-03-17T08:00:31.571Z,993.18
2019-03-17T08:01:42.027Z,993.12
2019-03-17T08:02:51.982Z,993.24
2019-03-17T08:04:01.957Z,993.16
2019-03-17T08:05:11.907Z,992.97
2019-03-17T08:06:21.886Z,993.08
2019-03-17T08:07:31.676Z,993.07
2019-03-17T08:08:41.195Z,992.96
2019-03-17T08:09:51.867Z,993.07
2019-03-17T08:11:01.813Z,993.11
2019-03-17T08:12:11.758Z,993.13
2019-03-17T08:13:21.715Z,993.12
2019-03-17T08:14:31.418Z,993.14
2019-03-17T08:15:41.111Z,993.18
2019-03-17T08:16:51.088Z,993.13
2019-03-17T08:18:00.779Z,993.23
2019-03-17T08:19:10.723Z,993.23
2019-03-17T08:20:20.676Z,993.25
2019-03-17T08:21:30.632Z,993.27
2019-03-17T08:22:43.762Z,993.37
2019-03-17T08:23:53.739Z,993.17
2019-03-17T08:25:03.700Z,993.18
2019-03-17T08:26:13.641Z,993.14
2019-03-17T08:27:23.598Z,993.17
2019-03-17T08:28:33.300Z,993.32
2019-03-17T08:29:43.260Z,993.41
2019-03-17T08:30:53.712Z,993.43
2019-03-17T08:32:03.724Z,993.46
2019-03-17T08:33:13.417Z,993.31
2019-03-17T08:34:23.379Z,993.19
2019-03-17T08:35:32.913Z,993.31
2019-03-17T08:36:42.624Z,993.3
2019-03-17T08:37:52.573Z,993.49
2019-03-17T08:39:02.282Z,993.51
2019-03-17T08:40:11.978Z,993.4
2019-03-17T08:41:21.917Z,993.25
2019-03-17T08:42:31.876Z,993.29
2019-03-17T08:43:53.401Z,993.34
2019-03-17T08:45:03.431Z,993.27
2019-03-17T08:46:13.156Z,993.19
2019-03-17T08:47:22.847Z,993.27
2019-03-17T08:48:32.805Z,993.46
2019-03-17T08:49:42.501Z,993.19
2019-03-17T08:50:52.446Z,993.36
2019-03-17T08:52:01.894Z,993.29
2019-03-17T08:53:11.358Z,993.45
2019-03-17T08:54:21.322Z,993.49
2019-03-17T08:55:31.289Z,993.29
2019-03-17T08:56:41.267Z,993.43
2019-03-17T08:57:51.242Z,993.45
2019-03-17T08:59:00.956Z,993.5
2019-03-17T09:00:10.967Z,993.36
2019-03-17T09:01:20.925Z,993.23
2019-03-17T09:02:30.625Z,993.27
2019-03-17T09:03:40.567Z,993.3
2019-03-17T09:04:50.295Z,993.25
2019-03-17T09:06:00.020Z,993.39
2019-03-17T09:07:09.718Z,993.33
2019-03-17T09:08:19.185Z,993.31
2019-03-17T09:09:41.849Z,993.34
2019-03-17T09:10:51.793Z,993.51
2019-03-17T09:12:01.751Z,993.42
2019-03-17T09:13:11.472Z,993.32
2019-03-17T09:14:21.439Z,993.42
2019-03-17T09:15:31.153Z,993.4
2019-03-17T09:16:40.854Z,993.4
2019-03-17T09:17:50.685Z,993.39
2019-03-17T09:19:00.659Z,993.41
2019-03-17T09:20:10.613Z,993.39
2019-03-17T09:21:20.568Z,993.29
2019-03-17T09:22:30.371Z,993.24
2019-03-17T09:23:42.482Z,993.4
2019-03-17T09:24:52.643Z,993.58
2019-03-17T09:26:02.596Z,993.34
2019-03-17T09:27:12.548Z,993.57
2019-03-17T09:28:22.492Z,993.42
2019-03-17T09:29:32.465Z,993.36
2019-03-17T09:30:42.438Z,993.47
2019-03-17T09:31:52.411Z,993.4
2019-03-17T09:33:02.374Z,993.48
2019-03-17T09:34:12.325Z,993.63
2019-03-17T09:35:22.292Z,993.32
2019-03-17T09:36:32.575Z,993.36
2019-03-17T09:37:42.575Z,993.48
2019-03-17T09:38:52.306Z,993.42
2019-03-17T09:40:02.016Z,993.36
2019-03-17T09:41:11.720Z,993.45
2019-03-17T09:42:21.667Z,993.63
2019-03-17T09:43:31.628Z,993.49
2019-03-17T09:44:41.594Z,993.22
2019-03-17T09:45:51.565Z,993.22
2019-03-17T09:47:01.517Z,993.41
2019-03-17T09:48:11.229Z,993.39
2019-03-17T09:49:21.174Z,993.29
2019-03-17T09:50:30.897Z,993.2
2019-03-17T09:51:40.842Z,993.27
2019-03-17T09:52:50.805Z,993.56
2019-03-17T09:54:00.786Z,993.38
2019-03-17T09:55:10.747Z,993.43
2019-03-17T09:56:20.705Z,993.08
2019-03-17T09:57:30.421Z,993.38
2019-03-17T09:58:40.154Z,993.32
2019-03-17T09:59:51.023Z,993.33
2019-03-17T10:01:01.013Z,993.41
2019-03-17T10:02:10.725Z,993.53
2019-03-17T10:03:20.665Z,993.77
2019-03-17T10:04:30.629Z,993.71
2019-03-17T10:05:40.589Z,993.3
2019-03-17T10:06:52.425Z,993.34
2019-03-17T10:08:02.126Z,993.25
2019-03-17T10:09:12.099Z,993.24
2019-03-17T10:10:22.057Z,993.28
2019-03-17T10:11:32.026Z,993.17
2019-03-17T10:12:41.486Z,993.21
2019-03-17T10:13:51.204Z,993.18
2019-03-17T10:15:01.166Z,993.32
2019-03-17T10:16:11.113Z,993.53
2019-03-17T10:17:21.054Z,993.34
2019-03-17T10:18:31.017Z,993.58
2019-03-17T10:19:40.473Z,993.52
2019-03-17T10:20:50.427Z,993.2
2019-03-17T10:22:00.147Z,993.11
2019-03-17T10:23:09.677Z,993.42
2019-03-17T10:24:19.406Z,993.3
2019-03-17T10:25:29.378Z,993.45
2019-03-17T10:26:39.084Z,993.42
2019-03-17T10:27:49.066Z,993.49
2019-03-17T10:28:59.016Z,993.58
2019-03-17T10:30:08.959Z,993.58
2019-03-17T10:31:18.923Z,993.39
2019-03-17T10:32:28.878Z,993.17
2019-03-17T10:33:38.571Z,993.26
2019-03-17T10:34:50.907Z,993.3
2019-03-17T10:36:00.630Z,993.34
2019-03-17T10:37:10.589Z,993.48
2019-03-17T10:38:20.035Z,993.54
2019-03-17T10:39:30.005Z,993.71
2019-03-17T10:40:39.953Z,993.79
2019-03-17T10:41:49.701Z,993.68
2019-03-17T10:42:59.659Z,993.59
2019-03-17T10:44:09.625Z,993.34
2019-03-17T10:45:19.419Z,993.4
2019-03-17T10:46:29.113Z,993.53
2019-03-17T10:47:38.634Z,993.42
2019-03-17T10:48:48.594Z,993.25
2019-03-17T10:49:58.541Z,993.5
2019-03-17T10:51:08.626Z,993.49
2019-03-17T10:52:18.565Z,993.43
2019-03-17T10:53:28.270Z,993.44
2019-03-17T10:54:38.230Z,993.39
2019-03-17T10:55:47.945Z,993.34
2019-03-17T10:56:57.904Z,993.5
2019-03-17T10:58:07.605Z,993.32
2019-03-17T10:59:17.562Z,993.73
2019-03-17T11:00:30.535Z,993.36
2019-03-17T11:01:40.522Z,993.34
2019-03-17T11:02:50.494Z,993.75
2019-03-17T11:04:00.473Z,993.34
2019-03-17T11:05:10.415Z,993.32
2019-03-17T11:06:20.390Z,993.46
2019-03-17T11:07:30.078Z,993.78
2019-03-17T11:08:40.037Z,993.48
2019-03-17T11:09:49.777Z,993.52
2019-03-17T11:10:59.465Z,993.45
2019-03-17T11:12:12.536Z,993.54
2019-03-17T11:13:22.239Z,993.45
2019-03-17T11:14:32.199Z,993.51
2019-03-17T11:15:42.149Z,993.46
2019-03-17T11:16:51.850Z,993.57
2019-03-17T11:18:01.806Z,993.55
2019-03-17T11:19:11.762Z,993.51
2019-03-17T11:20:21.718Z,993.55
2019-03-17T11:21:31.676Z,993.5
2019-03-17T11:22:41.381Z,993.28
2019-03-17T11:23:51.087Z,993.52
2019-03-17T11:25:00.551Z,993.35
2019-03-17T11:26:10.272Z,993.47
2019-03-17T11:27:19.980Z,993.4
2019-03-17T11:28:29.705Z,993.83
2019-03-17T11:29:39.664Z,993.52
2019-03-17T11:30:49.358Z,993.79
2019-03-17T11:31:59.114Z,993.42
2019-03-17T11:33:11.669Z,993.67
2019-03-17T11:34:21.640Z,993.53
2019-03-17T11:35:31.645Z,993.39
2019-03-17T11:36:41.358Z,993.47
2019-03-17T11:37:51.313Z,993.31
2019-03-17T11:39:00.790Z,993.35
2019-03-17T11:40:10.734Z,993.34
2019-03-17T11:41:20.719Z,993.59
2019-03-17T11:42:30.671Z,994.16
2019-03-17T11:43:40.617Z,993.46
2019-03-17T11:44:50.591Z,993.68
2019-03-17T11:46:00.039Z,993.51
2019-03-17T11:47:09.981Z,993.59
2019-03-17T11:48:19.935Z,993.74
2019-03-17T11:49:29.891Z,993.46
2019-03-17T11:50:39.621Z,993.56
2019-03-17T11:51:49.585Z,993.4
2019-03-17T11:52:59.535Z,993.42
2019-03-17T11:54:09.253Z,993.55
2019-03-17T11:55:18.951Z,993.58
2019-03-17T11:56:28.414Z,994.04
2019-03-17T11:57:38.121Z,993.53
2019-03-17T11:58:48.275Z,993.97
2019-03-17T11:59:58.236Z,993.7
2019-03-17T12:01:07.948Z,993.61
2019-03-17T12:02:26.269Z,993.56
2019-03-17T12:03:36.659Z,993.59
2019-03-17T12:04:46.607Z,993.81
2019-03-17T12:05:56.321Z,993.96
2019-03-17T12:07:06.287Z,993.76
2019-03-17T12:08:15.996Z,993.71
2019-03-17T12:09:29.170Z,993.84
2019-03-17T12:10:50.371Z,993.68
2019-03-17T12:12:00.404Z,993.64
2019-03-17T12:13:10.362Z,993.53
2019-03-17T12:14:20.307Z,993.43
2019-03-17T12:15:30.268Z,993.47
2019-03-17T12:16:39.719Z,993.43
2019-03-17T12:17:49.675Z,993.59
2019-03-17T12:18:59.628Z,993.4
2019-03-17T12:20:09.325Z,993.41
2019-03-17T12:21:19.371Z,993.61
2019-03-17T12:22:29.325Z,993.51
2019-03-17T12:23:39.281Z,993.47
2019-03-17T12:24:49.232Z,993.52
2019-03-17T12:25:59.208Z,993.57
2019-03-17T12:27:08.917Z,993.63
2019-03-17T12:28:18.383Z,993.7
2019-03-17T12:29:28.076Z,993.63
2019-03-17T12:30:37.795Z,993.62
2019-03-17T12:31:47.770Z,993.91
2019-03-17T12:32:57.716Z,993.7
2019-03-17T12:34:06.911Z,993.85
2019-03-17T12:35:28.183Z,993.54
2019-03-17T12:36:37.921Z,993.69
2019-03-17T12:37:47.630Z,993.62
2019-03-17T12:38:56.841Z,993.83
2019-03-17T12:40:06.807Z,993.84
2019-03-17T12:41:16.766Z,993.73
2019-03-17T12:42:26.722Z,993.52
2019-03-17T12:43:36.435Z,993.77
2019-03-17T12:44:45.900Z,993.68
2019-03-17T12:45:55.858Z,993.55
2019-03-17T12:47:05.814Z,993.44
2019-03-17T12:48:15.788Z,993.44
2019-03-17T12:49:25.752Z,993.42
2019-03-17T12:50:35.504Z,993.7
2019-03-17T12:51:45.264Z,993.47
2019-03-17T12:52:54.766Z,993.59
2019-03-17T12:54:04.742Z,993.47
2019-03-17T12:55:14.689Z,993.53
2019-03-17T12:56:24.184Z,993.54
2019-03-17T12:57:34.142Z,993.63
2019-03-17T12:58:44.100Z,993.52
2019-03-17T12:59:54.065Z,993.54
2019-03-17T13:01:04.011Z,993.58
2019-03-17T13:02:13.975Z,993.51
2019-03-17T13:03:23.934Z,993.59
2019-03-17T13:04:33.872Z,993.53
2019-03-17T13:05:43.584Z,993.57
2019-03-17T13:06:53.551Z,993.6
2019-03-17T13:08:03.276Z,993.54
2019-03-17T13:09:13.234Z,993.52
2019-03-17T13:10:23.195Z,993.92
2019-03-17T13:11:32.888Z,993.83
2019-03-17T13:12:42.852Z,994.06
2019-03-17T13:13:52.815Z,994.66
2019-03-17T13:15:02.269Z,994.18
2019-03-17T13:16:11.993Z,994.55
2019-03-17T13:17:21.961Z,994.52
2019-03-17T13:18:31.906Z,994.54
2019-03-17T13:19:41.854Z,994.56
2019-03-17T13:20:51.307Z,994.61
2019-03-17T13:22:01.289Z,994.64
2019-03-17T13:23:11.286Z,994.83
2019-03-17T13:24:21.246Z,994.88
2019-03-17T13:25:31.198Z,994.9
2019-03-17T13:26:41.156Z,994.96
2019-03-17T13:27:50.612Z,995.02
2019-03-17T13:29:00.316Z,995.22
2019-03-17T13:30:10.276Z,995.11
2019-03-17T13:31:20.622Z,995.12
2019-03-17T13:32:30.167Z,995.06
2019-03-17T13:33:39.884Z,995
2019-03-17T13:34:49.846Z,995
2019-03-17T13:35:59.786Z,994.98
2019-03-17T13:37:09.767Z,994.99
2019-03-17T13:38:19.718Z,995.11
2019-03-17T13:39:29.404Z,995.13
2019-03-17T13:40:39.354Z,995.12
2019-03-17T13:41:49.304Z,995.19
2019-03-17T13:42:59.261Z,995.11
2019-03-17T13:44:08.969Z,995.09
2019-03-17T13:45:18.920Z,995.05
2019-03-17T13:46:28.701Z,995.02
2019-03-17T13:47:38.670Z,995.07
2019-03-17T13:48:48.463Z,995.09
2019-03-17T13:49:58.418Z,995.1
2019-03-17T13:51:08.132Z,995.16
2019-03-17T13:52:17.841Z,995.13
2019-03-17T13:53:27.809Z,995.23
2019-03-17T13:54:37.794Z,995.18
2019-03-17T13:55:47.487Z,995.33
2019-03-17T13:56:57.436Z,995.22
2019-03-17T13:58:06.634Z,995.33
2019-03-17T13:59:16.572Z,995.31
2019-03-17T14:00:26.332Z,995.33
2019-03-17T14:01:36.299Z,995.29
2019-03-17T14:02:46.009Z,995.47
2019-03-17T14:03:55.472Z,995.34
2019-03-17T14:05:05.499Z,995.39
2019-03-17T14:06:15.470Z,995.4
2019-03-17T14:07:25.431Z,995.49
2019-03-17T14:08:35.379Z,995.53
2019-03-17T14:09:44.816Z,995.49
2019-03-17T14:10:54.538Z,995.44
2019-03-17T14:12:04.509Z,995.51
2019-03-17T14:13:14.488Z,995.5
2019-03-17T14:14:24.494Z,995.41
2019-03-17T14:15:34.476Z,995.49
2019-03-17T14:16:44.189Z,995.37
2019-03-17T14:17:53.638Z,995.36
2019-03-17T14:19:03.580Z,995.39
2019-03-17T14:20:13.528Z,995.43
2019-03-17T14:21:25.865Z,995.28
2019-03-17T14:22:35.616Z,995.34
2019-03-17T14:23:45.559Z,995.3
2019-03-17T14:24:55.540Z,995.29
2019-03-17T14:26:05.002Z,995.21
2019-03-17T14:27:14.954Z,995.21
2019-03-17T14:28:24.911Z,995.31
2019-03-17T14:29:34.925Z,995.35
2019-03-17T14:30:44.869Z,995.32
2019-03-17T14:31:54.316Z,995.33
2019-03-17T14:33:04.259Z,995.34
2019-03-17T14:34:14.452Z,995.36
2019-03-17T14:35:24.432Z,995.33
2019-03-17T14:36:34.149Z,995.3
2019-03-17T14:37:43.662Z,995.26